< < Back
Terminal Aerodrome Forecast


Current Version              Previous Versions:   1  2  3  4  5  6  7  8  9  

Terminal Aerodrome Forecast

229
FTUS42 KCAE 290912 AAA
TAFCAE
TAF AMD
KCAE 290912Z 2909/3006 23006KT P6SM SKC
     FM291500 27012G18KT P6SM SCT060
     FM300000 27006KT P6SM SCT250=



Latest METAR

728
SAUS80 KWBC 291700 CCA
MTRCAE
METAR KCAE 291656Z 31009G17KT 10SM SCT047 35/21 A2994 RMK AO2 SLP135
T03500206


USA.gov is the U.S. government's official web portal to all federal, state and local government web resources and services.